This is the latest recevied weather packets stored in our database for station/object EA1IWF-10. If no packets are shown the sender has not sent any weather packets the latest 1 day(s).
| Time | Temp. | Humidity | Pressure | Rain* | Wind** | Luminosity | Snow |
|---|---|---|---|---|---|---|---|
| 1777908211 | 28.89° C | 23% | 1015.8 hPa | - | - | - | - |
| 1777907310 | 28.89° C | 23% | 1015.7 hPa | - | - | - | - |
| 1777906409 | 27.78° C | 23% | 1015.8 hPa | - | - | - | - |
| 1777905508 | 27.78° C | 26% | 1016 hPa | - | - | - | - |
| 1777904607 | 25.56° C | 26% | 1016.2 hPa | - | - | - | - |
| 1777903707 | 28.33° C | 26% | 1016.2 hPa | - | - | - | - |
| 1777902806 | 21.67° C | 34% | 1016.2 hPa | - | - | - | - |
| 1777901904 | 22.22° C | 38% | 1016.4 hPa | - | - | - | - |
| 1777855186 | 15.56° C | 70% | 1016.6 hPa | - | - | - | - |
| 1777854946 | 14.44° C | 69% | 1016.7 hPa | - | - | - | - |
| 1777854045 | 16.11° C | 69% | 1016.8 hPa | - | - | - | - |
| 1777853633 | 15.56° C | 69% | 1016.7 hPa | - | - | - | - |
| 1777853350 | 14.44° C | 68% | 1016.7 hPa | - | - | - | - |
| 1777852449 | 15° C | 67% | 1016.7 hPa | - | - | - | - |
| 1777851549 | 15° C | 68% | 1016.7 hPa | - | - | - | - |
| 1777850648 | 15° C | 67% | 1016.7 hPa | - | - | - | - |
| 1777849747 | 15° C | 68% | 1016.7 hPa | - | - | - | - |
| 1777848846 | 15° C | 68% | 1016.8 hPa | - | - | - | - |
| 1777847945 | 15° C | 67% | 1016.9 hPa | - | - | - | - |
| 1777847044 | 15° C | 64% | 1016.8 hPa | - | - | - | - |
| 1777846144 | 15.56° C | 63% | 1016.9 hPa | - | - | - | - |
| 1777845243 | 15.56° C | 63% | 1016.9 hPa | - | - | - | - |
* Rain since midnight (hover to see other rain measurements)
** Current wind speed in m/s (hover to see current wind gust speed)